sensor_id;sensor_type;location;lat;lon;timestamp;temperature;humidity
37478;DHT22;23334;54.316;10.182;2023-04-24T00:01:03;12.20;99.90
37478;DHT22;23334;54.316;10.182;2023-04-24T00:20:33;12.30;99.90
37478;DHT22;23334;54.316;10.182;2023-04-24T00:23:00;12.20;99.90
37478;DHT22;23334;54.316;10.182;2023-04-24T00:30:18;12.40;99.90
37478;DHT22;23334;54.316;10.182;2023-04-24T00:37:35;12.50;99.90
37478;DHT22;23334;54.316;10.182;2023-04-24T00:42:28;12.40;99.90
37478;DHT22;23334;54.316;10.182;2023-04-24T00:54:43;12.20;99.90
37478;DHT22;23334;54.316;10.182;2023-04-24T00:57:11;12.20;99.90
37478;DHT22;23334;54.316;10.182;2023-04-24T01:02:04;12.10;99.90
37478;DHT22;23334;54.316;10.182;2023-04-24T01:04:30;11.90;99.90
37478;DHT22;23334;54.316;10.182;2023-04-24T01:06:56;11.80;99.90
37478;DHT22;23334;54.316;10.182;2023-04-24T01:09:23;11.80;99.90
37478;DHT22;23334;54.316;10.182;2023-04-24T01:11:49;11.70;99.90
37478;DHT22;23334;54.316;10.182;2023-04-24T01:14:15;11.80;99.90
37478;DHT22;23334;54.316;10.182;2023-04-24T01:16:42;11.60;99.90
37478;DHT22;23334;54.316;10.182;2023-04-24T01:21:36;11.50;99.90
37478;DHT22;23334;54.316;10.182;2023-04-24T01:24:05;11.50;99.90
37478;DHT22;23334;54.316;10.182;2023-04-24T01:26:32;11.50;99.90
37478;DHT22;23334;54.316;10.182;2023-04-24T01:33:51;11.40;99.90
37478;DHT22;23334;54.316;10.182;2023-04-24T01:46:02;11.40;99.90
37478;DHT22;23334;54.316;10.182;2023-04-24T01:53:20;11.30;99.90
37478;DHT22;23334;54.316;10.182;2023-04-24T01:58:12;11.20;99.90
37478;DHT22;23334;54.316;10.182;2023-04-24T02:03:05;11.20;99.90
37478;DHT22;23334;54.316;10.182;2023-04-24T02:10:23;11.20;99.90
37478;DHT22;23334;54.316;10.182;2023-04-24T02:20:06;11.10;99.90
37478;DHT22;23334;54.316;10.182;2023-04-24T02:22:32;11.10;99.90
37478;DHT22;23334;54.316;10.182;2023-04-24T02:24:58;11.00;99.90
37478;DHT22;23334;54.316;10.182;2023-04-24T02:34:43;10.90;99.90
37478;DHT22;23334;54.316;10.182;2023-04-24T02:37:09;11.00;99.90
37478;DHT22;23334;54.316;10.182;2023-04-24T03:01:29;10.70;99.90
37478;DHT22;23334;54.316;10.182;2023-04-24T03:13:38;10.90;99.90
37478;DHT22;23334;54.316;10.182;2023-04-24T03:16:04;10.90;99.90
37478;DHT22;23334;54.316;10.182;2023-04-24T03:33:06;11.00;99.90
37478;DHT22;23334;54.316;10.182;2023-04-24T03:42:49;10.70;99.90
37478;DHT22;23334;54.316;10.182;2023-04-24T03:50:07;10.60;99.90
37478;DHT22;23334;54.316;10.182;2023-04-24T03:57:25;10.50;99.90
37478;DHT22;23334;54.316;10.182;2023-04-24T04:41:24;10.20;99.90
37478;DHT22;23334;54.316;10.182;2023-04-24T04:43:51;10.30;99.90
37478;DHT22;23334;54.316;10.182;2023-04-24T04:46:18;10.20;99.90
37478;DHT22;23334;54.316;10.182;2023-04-24T05:20:21;10.80;99.90
37478;DHT22;23334;54.316;10.182;2023-04-24T05:22:48;10.80;99.90
37478;DHT22;23334;54.316;10.182;2023-04-24T05:30:06;11.60;99.90
37478;DHT22;23334;54.316;10.182;2023-04-24T05:47:09;12.60;99.90
37478;DHT22;23334;54.316;10.182;2023-04-24T05:52:00;13.70;99.90
37478;DHT22;23334;54.316;10.182;2023-04-24T06:09:05;14.90;99.90
37478;DHT22;23334;54.316;10.182;2023-04-24T06:13:57;14.10;99.90
37478;DHT22;23334;54.316;10.182;2023-04-24T06:18:48;13.90;99.90
37478;DHT22;23334;54.316;10.182;2023-04-24T06:21:16;13.70;99.90
37478;DHT22;23334;54.316;10.182;2023-04-24T06:45:38;16.00;99.90
37478;DHT22;23334;54.316;10.182;2023-04-24T06:48:04;16.00;99.90
37478;DHT22;23334;54.316;10.182;2023-04-24T07:14:51;14.00;99.90
37478;DHT22;23334;54.316;10.182;2023-04-24T07:17:17;13.90;99.90
37478;DHT22;23334;54.316;10.182;2023-04-24T07:22:08;14.00;99.90
37478;DHT22;23334;54.316;10.182;2023-04-24T07:24:34;14.00;99.90
37478;DHT22;23334;54.316;10.182;2023-04-24T07:29:26;14.10;99.90
37478;DHT22;23334;54.316;10.182;2023-04-24T07:34:19;13.80;99.90
37478;DHT22;23334;54.316;10.182;2023-04-24T07:39:11;14.10;99.90
37478;DHT22;23334;54.316;10.182;2023-04-24T07:41:37;14.10;99.90
37478;DHT22;23334;54.316;10.182;2023-04-24T07:46:30;14.30;99.90
37478;DHT22;23334;54.316;10.182;2023-04-24T07:53:47;14.20;99.90
37478;DHT22;23334;54.316;10.182;2023-04-24T08:03:32;14.30;99.90
37478;DHT22;23334;54.316;10.182;2023-04-24T08:05:57;14.30;99.90
37478;DHT22;23334;54.316;10.182;2023-04-24T08:08:23;14.20;99.90
37478;DHT22;23334;54.316;10.182;2023-04-24T08:20:33;13.50;99.90
37478;DHT22;23334;54.316;10.182;2023-04-24T08:27:51;13.30;99.90
37478;DHT22;23334;54.316;10.182;2023-04-24T08:30:17;13.20;99.90
37478;DHT22;23334;54.316;10.182;2023-04-24T08:32:43;13.20;99.90
37478;DHT22;23334;54.316;10.182;2023-04-24T08:37:35;13.40;99.90
37478;DHT22;23334;54.316;10.182;2023-04-24T08:42:28;14.10;99.90
37478;DHT22;23334;54.316;10.182;2023-04-24T08:44:54;13.90;99.90
37478;DHT22;23334;54.316;10.182;2023-04-24T08:49:48;13.80;99.90
37478;DHT22;23334;54.316;10.182;2023-04-24T08:52:15;13.80;99.90
37478;DHT22;23334;54.316;10.182;2023-04-24T08:54:41;13.90;99.90
37478;DHT22;23334;54.316;10.182;2023-04-24T08:57:08;13.90;99.90
37478;DHT22;23334;54.316;10.182;2023-04-24T08:59:37;13.80;99.90
37478;DHT22;23334;54.316;10.182;2023-04-24T09:02:03;13.90;99.90
37478;DHT22;23334;54.316;10.182;2023-04-24T09:04:30;14.00;99.90
37478;DHT22;23334;54.316;10.182;2023-04-24T09:06:57;14.20;99.90
37478;DHT22;23334;54.316;10.182;2023-04-24T09:09:23;14.20;99.90
37478;DHT22;23334;54.316;10.182;2023-04-24T09:14:16;14.10;99.90
37478;DHT22;23334;54.316;10.182;2023-04-24T09:16:42;14.10;99.90
37478;DHT22;23334;54.316;10.182;2023-04-24T09:19:08;14.10;99.90
37478;DHT22;23334;54.316;10.182;2023-04-24T09:24:05;14.10;99.90
37478;DHT22;23334;54.316;10.182;2023-04-24T09:26:32;14.10;99.90
37478;DHT22;23334;54.316;10.182;2023-04-24T09:29:01;14.20;99.90
37478;DHT22;23334;54.316;10.182;2023-04-24T09:31:28;14.10;99.90
37478;DHT22;23334;54.316;10.182;2023-04-24T09:33:56;14.10;99.90
37478;DHT22;23334;54.316;10.182;2023-04-24T09:36:29;14.10;99.90
37478;DHT22;23334;54.316;10.182;2023-04-24T09:39:01;14.20;99.90
37478;DHT22;23334;54.316;10.182;2023-04-24T09:41:28;14.60;99.90
37478;DHT22;23334;54.316;10.182;2023-04-24T09:43:57;14.80;99.90
37478;DHT22;23334;54.316;10.182;2023-04-24T09:46:30;14.80;99.90
37478;DHT22;23334;54.316;10.182;2023-04-24T09:51:49;14.50;99.90
37478;DHT22;23334;54.316;10.182;2023-04-24T09:54:17;14.70;99.90
37478;DHT22;23334;54.316;10.182;2023-04-24T09:56:45;14.60;99.90
37478;DHT22;23334;54.316;10.182;2023-04-24T09:59:12;14.60;99.90
37478;DHT22;23334;54.316;10.182;2023-04-24T10:04:28;16.10;99.90
37478;DHT22;23334;54.316;10.182;2023-04-24T10:06:57;17.30;99.90
37478;DHT22;23334;54.316;10.182;2023-04-24T10:09:25;17.20;99.90
37478;DHT22;23334;54.316;10.182;2023-04-24T10:11:53;18.10;99.90
37478;DHT22;23334;54.316;10.182;2023-04-24T10:14:21;17.80;99.90
37478;DHT22;23334;54.316;10.182;2023-04-24T10:16:48;17.80;99.90
37478;DHT22;23334;54.316;10.182;2023-04-24T10:19:14;17.10;99.90
37478;DHT22;23334;54.316;10.182;2023-04-24T10:21:41;16.90;99.90
37478;DHT22;23334;54.316;10.182;2023-04-24T10:24:08;16.70;99.90
37478;DHT22;23334;54.316;10.182;2023-04-24T10:26:36;17.00;99.90
37478;DHT22;23334;54.316;10.182;2023-04-24T10:29:05;17.00;99.90
37478;DHT22;23334;54.316;10.182;2023-04-24T10:31:32;16.40;99.90
37478;DHT22;23334;54.316;10.182;2023-04-24T10:33:58;16.10;99.90
37478;DHT22;23334;54.316;10.182;2023-04-24T10:36:25;16.00;99.90
37478;DHT22;23334;54.316;10.182;2023-04-24T10:38:54;15.80;99.90
37478;DHT22;23334;54.316;10.182;2023-04-24T10:44:10;15.30;99.90
37478;DHT22;23334;54.316;10.182;2023-04-24T10:46:37;15.20;99.90
37478;DHT22;23334;54.316;10.182;2023-04-24T10:49:07;15.50;99.90
37478;DHT22;23334;54.316;10.182;2023-04-24T10:51:52;15.10;99.90
37478;DHT22;23334;54.316;10.182;2023-04-24T10:54:49;14.80;99.90
37478;DHT22;23334;54.316;10.182;2023-04-24T10:59:52;14.80;99.90
37478;DHT22;23334;54.316;10.182;2023-04-24T11:02:38;14.60;99.90
37478;DHT22;23334;54.316;10.182;2023-04-24T11:05:06;14.70;99.90
37478;DHT22;23334;54.316;10.182;2023-04-24T11:08:12;14.70;99.90
37478;DHT22;23334;54.316;10.182;2023-04-24T11:10:43;15.00;99.90
37478;DHT22;23334;54.316;10.182;2023-04-24T11:15:35;15.60;99.90
37478;DHT22;23334;54.316;10.182;2023-04-24T11:22:55;16.70;99.90
37478;DHT22;23334;54.316;10.182;2023-04-24T11:30:20;16.30;99.90
37478;DHT22;23334;54.316;10.182;2023-04-24T11:32:50;15.90;99.90
37478;DHT22;23334;54.316;10.182;2023-04-24T11:35:18;15.20;99.90
37478;DHT22;23334;54.316;10.182;2023-04-24T11:37:49;15.20;99.90
37478;DHT22;23334;54.316;10.182;2023-04-24T11:40:16;14.80;99.90
37478;DHT22;23334;54.316;10.182;2023-04-24T11:42:47;14.40;99.90
37478;DHT22;23334;54.316;10.182;2023-04-24T11:45:17;14.00;99.90
37478;DHT22;23334;54.316;10.182;2023-04-24T11:50:20;14.00;99.90
37478;DHT22;23334;54.316;10.182;2023-04-24T11:52:47;14.00;99.90
37478;DHT22;23334;54.316;10.182;2023-04-24T11:57:46;14.40;99.90
37478;DHT22;23334;54.316;10.182;2023-04-24T12:00:20;14.60;99.90
37478;DHT22;23334;54.316;10.182;2023-04-24T12:02:47;14.90;99.90
37478;DHT22;23334;54.316;10.182;2023-04-24T12:05:31;14.80;99.90
37478;DHT22;23334;54.316;10.182;2023-04-24T12:07:57;14.80;99.90
37478;DHT22;23334;54.316;10.182;2023-04-24T12:10:25;14.70;99.90
37478;DHT22;23334;54.316;10.182;2023-04-24T12:15:20;14.50;99.90
37478;DHT22;23334;54.316;10.182;2023-04-24T12:22:50;15.10;99.90
37478;DHT22;23334;54.316;10.182;2023-04-24T12:25:27;16.00;99.90
37478;DHT22;23334;54.316;10.182;2023-04-24T12:27:55;16.10;99.90
37478;DHT22;23334;54.316;10.182;2023-04-24T12:30:25;16.60;99.90
37478;DHT22;23334;54.316;10.182;2023-04-24T12:35:21;16.80;99.90
37478;DHT22;23334;54.316;10.182;2023-04-24T12:40:14;17.00;99.90
37478;DHT22;23334;54.316;10.182;2023-04-24T12:42:51;16.50;99.90
37478;DHT22;23334;54.316;10.182;2023-04-24T12:45:18;16.30;99.90
37478;DHT22;23334;54.316;10.182;2023-04-24T12:47:45;16.30;99.90
37478;DHT22;23334;54.316;10.182;2023-04-24T12:50:12;16.30;99.90
37478;DHT22;23334;54.316;10.182;2023-04-24T12:55:05;16.10;99.90
37478;DHT22;23334;54.316;10.182;2023-04-24T12:57:34;16.40;99.90
37478;DHT22;23334;54.316;10.182;2023-04-24T13:09:49;16.40;99.90
37478;DHT22;23334;54.316;10.182;2023-04-24T13:19:41;15.80;99.90
37478;DHT22;23334;54.316;10.182;2023-04-24T13:22:09;15.50;99.90
37478;DHT22;23334;54.316;10.182;2023-04-24T13:24:35;15.40;99.90
37478;DHT22;23334;54.316;10.182;2023-04-24T13:31:55;15.20;99.90
37478;DHT22;23334;54.316;10.182;2023-04-24T13:34:21;15.10;99.90
37478;DHT22;23334;54.316;10.182;2023-04-24T13:39:13;15.00;99.90
37478;DHT22;23334;54.316;10.182;2023-04-24T13:41:39;14.80;99.90
37478;DHT22;23334;54.316;10.182;2023-04-24T13:51:23;14.30;99.90
37478;DHT22;23334;54.316;10.182;2023-04-24T13:53:52;14.30;99.90
37478;DHT22;23334;54.316;10.182;2023-04-24T14:01:09;14.20;99.90
37478;DHT22;23334;54.316;10.182;2023-04-24T14:03:37;14.30;99.90
37478;DHT22;23334;54.316;10.182;2023-04-24T14:15:47;15.10;99.90
37478;DHT22;23334;54.316;10.182;2023-04-24T14:18:13;14.90;99.90
37478;DHT22;23334;54.316;10.182;2023-04-24T14:23:05;15.00;99.90
37478;DHT22;23334;54.316;10.182;2023-04-24T14:27:56;14.90;99.90
37478;DHT22;23334;54.316;10.182;2023-04-24T14:40:09;14.70;99.90
37478;DHT22;23334;54.316;10.182;2023-04-24T14:45:02;14.30;99.90
37478;DHT22;23334;54.316;10.182;2023-04-24T14:49:54;14.20;99.90
37478;DHT22;23334;54.316;10.182;2023-04-24T14:57:12;13.80;99.90
37478;DHT22;23334;54.316;10.182;2023-04-24T14:59:38;13.50;99.90
37478;DHT22;23334;54.316;10.182;2023-04-24T15:04:30;13.40;99.90
37478;DHT22;23334;54.316;10.182;2023-04-24T15:06:57;13.30;99.90
37478;DHT22;23334;54.316;10.182;2023-04-24T15:09:24;13.60;99.90
37478;DHT22;23334;54.316;10.182;2023-04-24T15:11:51;13.60;99.90
37478;DHT22;23334;54.316;10.182;2023-04-24T15:17:56;13.60;99.90
37478;DHT22;23334;54.316;10.182;2023-04-24T15:23:51;13.70;99.90
37478;DHT22;23334;54.316;10.182;2023-04-24T15:28:43;13.90;99.90
37478;DHT22;23334;54.316;10.182;2023-04-24T15:36:42;13.30;99.90
37478;DHT22;23334;54.316;10.182;2023-04-24T15:39:16;13.70;99.90
37478;DHT22;23334;54.316;10.182;2023-04-24T15:44:08;12.90;99.90
37478;DHT22;23334;54.316;10.182;2023-04-24T15:46:34;12.90;99.90
37478;DHT22;23334;54.316;10.182;2023-04-24T15:49:00;12.80;99.90
37478;DHT22;23334;54.316;10.182;2023-04-24T15:58:44;12.40;99.90
37478;DHT22;23334;54.316;10.182;2023-04-24T16:01:10;12.50;99.90
37478;DHT22;23334;54.316;10.182;2023-04-24T16:06:03;12.10;99.90
37478;DHT22;23334;54.316;10.182;2023-04-24T16:18:12;11.60;99.90
37478;DHT22;23334;54.316;10.182;2023-04-24T16:30:22;11.00;99.90
37478;DHT22;23334;54.316;10.182;2023-04-24T16:32:53;10.70;99.90
37478;DHT22;23334;54.316;10.182;2023-04-24T16:40:12;10.10;99.90
37478;DHT22;23334;54.316;10.182;2023-04-24T17:02:08;9.70;99.90
37478;DHT22;23334;54.316;10.182;2023-04-24T17:07:00;9.50;99.90
37478;DHT22;23334;54.316;10.182;2023-04-24T17:11:53;9.40;99.90
37478;DHT22;23334;54.316;10.182;2023-04-24T17:41:08;8.50;99.90
37478;DHT22;23334;54.316;10.182;2023-04-24T17:46:00;8.40;99.90
37478;DHT22;23334;54.316;10.182;2023-04-24T18:00:40;7.90;99.90
37478;DHT22;23334;54.316;10.182;2023-04-24T18:03:07;7.80;99.90
37478;DHT22;23334;54.316;10.182;2023-04-24T18:05:35;7.80;99.90
37478;DHT22;23334;54.316;10.182;2023-04-24T18:10:28;7.70;99.90
37478;DHT22;23334;54.316;10.182;2023-04-24T18:17:48;7.70;99.90
37478;DHT22;23334;54.316;10.182;2023-04-24T18:20:15;7.60;99.90
37478;DHT22;23334;54.316;10.182;2023-04-24T18:25:07;7.60;99.90
37478;DHT22;23334;54.316;10.182;2023-04-24T18:42:11;7.60;99.90
37478;DHT22;23334;54.316;10.182;2023-04-24T18:47:07;7.60;99.90
37478;DHT22;23334;54.316;10.182;2023-04-24T18:51:59;7.70;99.90
37478;DHT22;23334;54.316;10.182;2023-04-24T18:56:50;7.70;99.90
37478;DHT22;23334;54.316;10.182;2023-04-24T18:59:17;7.70;99.90
37478;DHT22;23334;54.316;10.182;2023-04-24T19:01:42;7.70;99.90
37478;DHT22;23334;54.316;10.182;2023-04-24T19:21:10;7.70;99.90
37478;DHT22;23334;54.316;10.182;2023-04-24T19:38:15;7.80;99.90
37478;DHT22;23334;54.316;10.182;2023-04-24T19:52:50;7.80;99.90
37478;DHT22;23334;54.316;10.182;2023-04-24T19:55:16;7.80;99.90
37478;DHT22;23334;54.316;10.182;2023-04-24T20:00:08;7.80;99.90
37478;DHT22;23334;54.316;10.182;2023-04-24T20:14:46;7.90;99.90
37478;DHT22;23334;54.316;10.182;2023-04-24T20:22:05;7.90;99.90
37478;DHT22;23334;54.316;10.182;2023-04-24T20:24:31;7.90;99.90
37478;DHT22;23334;54.316;10.182;2023-04-24T20:29:22;7.90;99.90
37478;DHT22;23334;54.316;10.182;2023-04-24T20:48:51;8.00;99.90
37478;DHT22;23334;54.316;10.182;2023-04-24T21:18:03;8.20;99.90
37478;DHT22;23334;54.316;10.182;2023-04-24T21:30:13;8.30;99.90
37478;DHT22;23334;54.316;10.182;2023-04-24T21:35:05;8.30;99.90
37478;DHT22;23334;54.316;10.182;2023-04-24T21:44:50;8.20;99.90
37478;DHT22;23334;54.316;10.182;2023-04-24T21:56:59;8.20;99.90
37478;DHT22;23334;54.316;10.182;2023-04-24T22:14:02;8.00;99.90
37478;DHT22;23334;54.316;10.182;2023-04-24T22:18:54;8.10;99.90
37478;DHT22;23334;54.316;10.182;2023-04-24T22:35:56;8.00;99.90
37478;DHT22;23334;54.316;10.182;2023-04-24T22:45:41;8.00;99.90
37478;DHT22;23334;54.316;10.182;2023-04-24T22:50:33;8.00;99.90
37478;DHT22;23334;54.316;10.182;2023-04-24T22:57:50;8.00;99.90
37478;DHT22;23334;54.316;10.182;2023-04-24T23:05:09;7.90;99.90
37478;DHT22;23334;54.316;10.182;2023-04-24T23:07:35;7.80;99.90
37478;DHT22;23334;54.316;10.182;2023-04-24T23:14:53;7.50;99.90
37478;DHT22;23334;54.316;10.182;2023-04-24T23:27:03;7.30;99.90
37478;DHT22;23334;54.316;10.182;2023-04-24T23:31:55;7.30;99.90
37478;DHT22;23334;54.316;10.182;2023-04-24T23:51:23;7.30;99.90
